createdAt,value
2019-02-02T00:02:00.181Z,30.40
2019-02-02T00:08:04.879Z,30.47
2019-02-02T00:14:09.463Z,30.43
2019-02-02T00:20:14.591Z,29.47
2019-02-02T00:26:18.916Z,31.97
2019-02-02T00:32:23.218Z,28.97
2019-02-02T00:38:27.468Z,32.87
2019-02-02T00:44:31.869Z,31.50
2019-02-02T00:50:36.161Z,33.30
2019-02-02T00:56:40.460Z,33.50
2019-02-02T01:02:44.656Z,31.10
2019-02-02T01:08:49.022Z,31.57
2019-02-02T01:14:53.262Z,31.60
2019-02-02T01:20:57.602Z,32.77
2019-02-02T01:27:01.833Z,31.00
2019-02-02T01:33:06.165Z,31.97
2019-02-02T01:39:10.378Z,33.73
2019-02-02T01:45:20.030Z,34.90
2019-02-02T01:51:24.287Z,32.73
2019-02-02T01:57:28.517Z,32.37
2019-02-02T02:03:32.737Z,32.27
2019-02-02T02:09:37.102Z,32.83
2019-02-02T02:15:41.361Z,31.53
2019-02-02T02:21:45.620Z,33.37
2019-02-02T02:27:50.236Z,34.70
2019-02-02T02:33:54.534Z,38.83
2019-02-02T02:39:58.838Z,38.07
2019-02-02T02:46:03.121Z,35.40
2019-02-02T02:52:07.508Z,39.17
2019-02-02T02:58:11.727Z,40.43
2019-02-02T03:04:15.963Z,38.73
2019-02-02T03:10:21.549Z,41.53
2019-02-02T03:16:25.896Z,41.97
2019-02-02T03:22:30.263Z,41.17
2019-02-02T03:28:34.482Z,39.50
2019-02-02T03:34:38.828Z,40.13
2019-02-02T03:40:43.222Z,41.50
2019-02-02T03:46:47.514Z,41.47
2019-02-02T03:52:51.837Z,41.80
2019-02-02T03:59:06.271Z,37.73
2019-02-02T04:05:02.000Z,38.63
2019-02-02T04:11:06.347Z,38.97
2019-02-02T04:17:10.699Z,38.97
2019-02-02T04:23:15.000Z,38.50
2019-02-02T04:29:19.232Z,38.97
2019-02-02T04:35:23.532Z,38.43
2019-02-02T04:41:27.828Z,37.87
2019-02-02T04:47:32.134Z,35.47
2019-02-02T04:53:36.342Z,33.83
2019-02-02T04:59:40.694Z,30.17
2019-02-02T05:05:44.896Z,28.47
2019-02-02T05:11:49.300Z,28.60
2019-02-02T05:17:53.577Z,27.23
2019-02-02T05:23:57.805Z,25.57
2019-02-02T05:30:02.023Z,24.97
2019-02-02T05:36:06.430Z,21.80
2019-02-02T05:42:10.652Z,20.23
2019-02-02T05:48:14.882Z,18.57
2019-02-02T05:54:19.066Z,17.97
2019-02-02T06:00:49.159Z,18.43
2019-02-02T06:06:53.457Z,17.57
2019-02-02T06:12:57.771Z,15.13
2019-02-02T06:19:02.085Z,15.60
2019-02-02T06:25:07.714Z,14.07
2019-02-02T06:31:12.013Z,15.17
2019-02-02T06:37:16.392Z,16.10
2019-02-02T06:43:20.637Z,16.43
2019-02-02T06:49:25.001Z,14.23
2019-02-02T06:55:29.322Z,13.87
2019-02-02T07:01:33.527Z,12.90
2019-02-02T07:07:37.815Z,13.10
2019-02-02T07:13:42.071Z,14.37
2019-02-02T07:19:46.294Z,13.13
2019-02-02T07:25:50.549Z,14.73
2019-02-02T07:31:54.939Z,14.30
2019-02-02T07:37:59.192Z,13.30
2019-02-02T07:44:03.508Z,13.73
2019-02-02T07:50:09.498Z,13.40
2019-02-02T07:56:13.711Z,13.13
2019-02-02T08:02:17.901Z,12.63
2019-02-02T08:08:22.102Z,13.37
2019-02-02T08:14:26.342Z,12.63
2019-02-02T08:20:30.666Z,12.23
2019-02-02T08:26:34.993Z,13.67
2019-02-02T08:32:39.325Z,11.67
2019-02-02T08:38:43.658Z,12.23
2019-02-02T08:44:47.936Z,11.50
2019-02-02T08:50:52.191Z,10.70
2019-02-02T08:56:56.420Z,10.87
2019-02-02T09:03:01.035Z,9.90
2019-02-02T09:09:08.556Z,9.47
2019-02-02T09:15:13.819Z,13.77
2019-02-02T09:21:18.331Z,12.83
2019-02-02T09:27:22.568Z,11.40
2019-02-02T09:33:26.851Z,12.50
2019-02-02T09:39:31.118Z,11.53
2019-02-02T09:45:35.387Z,11.97
2019-02-02T09:51:39.678Z,11.30
2019-02-02T09:57:43.965Z,11.77
2019-02-02T10:03:48.327Z,12.27
2019-02-02T10:09:52.553Z,11.40
2019-02-02T10:15:56.807Z,12.30
2019-02-02T10:22:01.088Z,10.30
2019-02-02T10:28:05.950Z,11.40
2019-02-02T10:34:12.290Z,10.37
2019-02-02T10:40:16.225Z,9.87
2019-02-02T10:46:20.512Z,10.60
2019-02-02T10:52:24.840Z,10.50
2019-02-02T10:58:29.182Z,10.30
2019-02-02T11:04:33.481Z,11.53
2019-02-02T11:10:37.937Z,11.37
2019-02-02T11:16:42.396Z,11.20
2019-02-02T11:22:46.796Z,11.60
2019-02-02T11:28:51.257Z,12.40
2019-02-02T11:34:55.496Z,11.73
2019-02-02T11:40:59.711Z,13.30
2019-02-02T11:47:04.160Z,13.00
2019-02-02T11:53:08.528Z,13.40
2019-02-02T11:59:12.792Z,12.87
2019-02-02T12:05:17.170Z,13.03
2019-02-02T12:11:21.454Z,14.63
2019-02-02T12:17:25.785Z,14.63
2019-02-02T12:23:30.068Z,13.90
2019-02-02T12:29:34.286Z,13.83
2019-02-02T12:35:38.482Z,13.30
2019-02-02T12:41:42.879Z,13.70
2019-02-02T12:47:47.289Z,14.30
2019-02-02T12:53:51.531Z,16.90
2019-02-02T12:59:55.861Z,14.40
2019-02-02T13:06:00.136Z,16.33
2019-02-02T13:12:04.355Z,15.80
2019-02-02T13:18:08.742Z,16.50
2019-02-02T13:24:13.026Z,16.47
2019-02-02T13:30:22.836Z,18.00
2019-02-02T13:36:27.121Z,17.93
2019-02-02T13:42:31.414Z,18.87
2019-02-02T13:48:35.629Z,19.33
2019-02-02T13:54:39.959Z,19.80
2019-02-02T14:00:44.246Z,17.30
2019-02-02T14:06:48.641Z,14.30
2019-02-02T14:12:52.839Z,12.33
2019-02-02T14:18:57.112Z,12.47
2019-02-02T14:25:01.385Z,13.03
2019-02-02T14:31:05.669Z,12.90
2019-02-02T14:37:09.889Z,9.43
2019-02-02T14:43:14.119Z,6.60
2019-02-02T14:49:18.325Z,4.77
2019-02-02T14:55:27.158Z,4.30
2019-02-02T15:01:31.529Z,3.70
2019-02-02T15:07:35.736Z,4.10
2019-02-02T15:13:39.984Z,4.13
2019-02-02T15:19:44.294Z,4.70
2019-02-02T15:25:48.568Z,5.37
2019-02-02T15:31:52.872Z,6.13
2019-02-02T15:37:57.102Z,6.40
2019-02-02T15:44:01.284Z,7.87
2019-02-02T15:50:07.158Z,7.93
2019-02-02T15:56:11.353Z,7.63
2019-02-02T16:02:15.652Z,7.47
2019-02-02T16:08:19.964Z,6.67
2019-02-02T16:14:24.328Z,7.00
2019-02-02T16:20:31.078Z,7.43
2019-02-02T16:26:35.316Z,8.17
2019-02-02T16:32:39.556Z,8.77
2019-02-02T16:38:43.783Z,8.20
2019-02-02T16:44:47.992Z,7.30
2019-02-02T16:50:52.194Z,7.03
2019-02-02T16:56:56.427Z,7.53
2019-02-02T17:03:00.878Z,7.27
2019-02-02T17:09:08.083Z,7.50
2019-02-02T17:15:12.463Z,7.83
2019-02-02T17:21:16.742Z,6.30
2019-02-02T17:27:21.087Z,5.60
2019-02-02T17:33:26.713Z,5.67
2019-02-02T17:39:31.095Z,6.87
2019-02-02T17:45:35.378Z,7.73
2019-02-02T17:51:39.607Z,6.90
2019-02-02T17:57:43.871Z,8.03
2019-02-02T18:03:48.143Z,8.37
2019-02-02T18:09:52.437Z,7.97
2019-02-02T18:15:56.743Z,8.70
2019-02-02T18:22:01.028Z,8.20
2019-02-02T18:28:05.780Z,8.87
2019-02-02T18:34:10.056Z,9.93
2019-02-02T18:40:15.854Z,9.30
2019-02-02T18:46:20.064Z,13.90
2019-02-02T18:52:24.281Z,9.40
2019-02-02T18:58:28.466Z,8.63
2019-02-02T19:04:32.668Z,8.67
2019-02-02T19:10:39.080Z,9.27
2019-02-02T19:16:43.330Z,9.33
2019-02-02T19:22:47.592Z,9.03
2019-02-02T19:28:51.912Z,10.53
2019-02-02T19:34:56.174Z,8.10
2019-02-02T19:41:00.513Z,8.33
2019-02-02T19:47:15.711Z,8.97
2019-02-02T19:53:12.018Z,9.13
2019-02-02T19:59:16.394Z,8.73
2019-02-02T20:05:28.599Z,8.30
2019-02-02T20:11:27.000Z,8.60
2019-02-02T20:17:31.381Z,8.77
2019-02-02T20:23:38.661Z,8.97
2019-02-02T20:29:41.877Z,8.13
2019-02-02T20:35:48.547Z,9.50
2019-02-02T20:41:52.066Z,9.70
2019-02-02T20:47:56.411Z,9.33
2019-02-02T20:54:00.890Z,8.90
2019-02-02T21:00:06.563Z,7.70
2019-02-02T21:06:10.957Z,8.33
2019-02-02T21:12:15.365Z,8.60
2019-02-02T21:18:19.645Z,9.00
2019-02-02T21:24:23.877Z,10.47
2019-02-02T21:30:30.632Z,7.03
2019-02-02T21:36:34.911Z,5.97
2019-02-02T21:42:39.159Z,6.43
2019-02-02T21:48:43.432Z,7.30
2019-02-02T21:54:47.744Z,7.43
2019-02-02T22:00:51.959Z,7.37
2019-02-02T22:06:56.878Z,7.77
2019-02-02T22:13:01.157Z,7.67
2019-02-02T22:19:05.680Z,7.90
2019-02-02T22:25:13.434Z,6.80
2019-02-02T22:31:18.112Z,6.60
2019-02-02T22:37:22.410Z,7.40
2019-02-02T22:43:26.649Z,7.70
2019-02-02T22:49:31.217Z,6.10
2019-02-02T22:55:35.508Z,5.73
2019-02-02T23:01:45.857Z,6.47
2019-02-02T23:08:37.022Z,6.53
2019-02-02T23:15:22.276Z,7.20
2019-02-02T23:21:27.416Z,6.00
2019-02-02T23:27:31.675Z,6.77
2019-02-02T23:33:35.940Z,7.07
2019-02-02T23:39:40.333Z,7.47
2019-02-02T23:45:44.642Z,7.57
2019-02-02T23:51:48.972Z,8.37
2019-02-02T23:57:53.263Z,7.30
